Cannon Falls, MN (55009)

12:44 PM CDT on May 29, 2015 (GMT -0500)
MNDOT | | Change Station
CLOSE
Current Station
Personal Weather Station
Location: Cannon Falls, MN
Elevation: 1213 ft
Nearby Weather Stations

Elev 1213 ft 44.41 °N, 92.86 °W | Updated 19 minutes ago

Overcast
Overcast
68 °F
Feels Like 68 °F
N
9
Wind Variable Wind from SSW
Gusts 12.0 mph

Today
High -- | Low -- °F
--% Chance of Precip.
Yesterday
High -- | Low -- °F
Precip. -- in
5:31 AM 8:46 PM
Waxing Gibbous, 85% visible
Pressure 29.90 in
Visibility 10.0 miles
Clouds Mostly Cloudy 2200 ft
Overcast 2900 ft
Dew Point 64 °F
Humidity 85%
Rainfall in
Snow Depth Not available.
UV 3 out of 12
Pollen .90 out of 12
Air Quality Not available.
Flu Activity Sporadic
METAR KSYN 291734Z AUTO 25005KT 10SM BKN022 OVC029 21/17 A2990 RMK AO2 T02100167

More Conditions Fewer Conditions

Pressure 29.90 in
Visibility 10.0 miles
Clouds Mostly Cloudy 2200 ft
Overcast 2900 ft
Dew Point 64 °F
Humidity 85%
Rainfall in
Snow Depth Not available.
UV 3 out of 12
Pollen .90 out of 12
Air Quality Not available.
Flu Activity Sporadic
METAR KSYN 291734Z AUTO 25005KT 10SM BKN022 OVC029 21/17 A2990 RMK AO2 T02100167

More Conditions Fewer Conditions

10-Day Weather Forecast

Almanac

Astronomy

May. 29, 2015 Rise Set
Actual Time
Civil Twilight
Nautical Twilight
Astronomical Twilight
Moon
Length of Visible Light
Length of Day
Tomorrow will be .
, % of the Moon is Illuminated

Today's Extremes

State Highs State Lows

Community

WunderPhotos

Upload Photos

1,825,306 photos uploaded!

WunderBlogs® & News

Nearby

Air Quality

  Air Quality AQ Index Pollutant
Not available.

Snow Depth

Station Depth Elevation

Earthquake Activity

City Distance Mag. Time & Date
Minimum magnitude displayed is 2.5.

Coastal Water Temperatures

Place Temperature

Stations

Nearby Weather Stations

Station Location Temp. Windchill Dew Point Humidity Wind Precip. Elev Updated Type